Portada
METAR-TAF:

METAR-TAF

Aeroports :

Takamatsu, Japó

latitud: 34-13N, longitud: 134-01E, altitud: 185 m

Observació

L'informe es va fer fa 1 hora i 48 minuts, a les 12:00 UTC
Vent 2 kt amb direcció variable
Temperatura 20°C
Humitat 83%
Pressió 1006 hPa
Visibilitat 10 km o més
Escasses núvols a una alçada de 4000 ft
Cel ennuvolat

METAR: RJOT 031200Z VRB02KT 9999 FEW040 BKN/// 20/17 Q1006

Hora: 22:48 (13:48 UTC)

Pronòstic

L'informe es va fer fa 2 hores i 41 minuts, a les 11:07 UTC
Pronòstic vàlid del 03 a les 12 UTC al 04 a les 18 UTC
Vent 5 kt del Sud/Sud-Est
Visibilitat 10 km o més
Escasses núvols a una alçada de 4000 ft
Evolucionant progressivament
l' 03 a les 22 UTC al 04 a les 00 UTC
Vent 5 kt del Oest/Nord-Oest

TAF: RJOT 031107Z 0312/0418 15005KT 9999 FEW040 BECMG 0322/0400 30005KT

Observacions i pronòstics meteorològics de més de 4000 aeroports (METAR i TAF).

Les estacions disponibles són els punts grocs i vermells al mapa.

Posi el ratolí al punt desitjat per veure el nom de l'estació.

Feu clic per veure les observacions i els pronòstics meteorològics.

Per canviar el mapa: feu clic els botons verds amb una creu de color negre per apropar; al botó verd amb un guió per allunyar la imatge; o en les fletxes verdes per a mapes adjacents.


METAR-TAF: